الصفحة الرئيسية
METAR-TAF:

METAR-TAF

مطار :

Bullhead City, أريزونا, الولايات المتحدة

دائرة عرض: 35-09-27N, خط طول: 114-33-34W, ارتفاع: 212 متر

مراقبة الطقس الحالي

تاريخ ووقت الإصدار 29 دقيقة قبل الساعة 05:55UTC
ريح 18 عقدة من الشمال/الشمال الشرقي
درجة الحرارة 14°درجة مئوية
الرطوبة 19%
ضغط 1026 hPa
الرؤية: 16.1 كم
سماء صافية

METAR: KIFP 140555Z AUTO 02018KT 10SM CLR 14/M09 A3030 RMK AO2

زمن: 23:24 (06:24 UTC)

توقعات

تاريخ ووقت الإصدار 45 دقيقة قبل الساعة 05:39UTC
التوقعات صالحة من14 الساعة 06 UTC إلى 15 الساعة 06 UTC
ريح 14 عقدة من الشمال/الشمال الشرقي
الرؤية: 10 كم
غيوم قليلة على ارتفاع 25000 قدم
من 14 الساعة 1200 UTC
ريح 12 عقدة من الشمال
الرؤية: 10 كم
غيوم مفككة على ارتفاع 25000 قدم
من 14 الساعة 2200 UTC
ريح 6 عقدةمن اتجاهات متغيرة
الرؤية: 10 كم
غيوم متفرقة على ارتفاع 15000 قدم
غيوم مفككة على ارتفاع 20000 قدم

TAF: KIFP 140539Z 1406/1506 02014KT P6SM FEW250 FM141200 01012KT P6SM BKN250 FM142200 VRB06KT P6SM SCT150 BKN200

أرصاد الطقس والتوقعات من أكثر من 4000 مطار (تقارير الطقس للمطار METAR والتنبؤ بالطقس بالمطارTAF).

المحطات المتاحة هي النقط الصفراء والحمراء على الخريطة.

حرك المؤشر فوق النقطة لمعرفة اسم المحطة.

ثم انقر لمعرفة أرصاد وتوقعات الطقس.

لتغيير الخارطة: اضغط على الأزرار الخضراء مع رمز الصليب الأسود للتكبير. على الزر الأخضر مع شرطة للتصغير، أو على الأسهم الخضراء للخرائط المجاورة.


METAR-TAF: